Terminal Aerodrome Forecast
Issued by NWS

Home | Current Version | Previous Version | Text Only | Print | Product List | Glossary On
Versions: 1 2 3 4 5 6 7 8 9 10 11 12 13 14 15 16 17 18 19 20
000
FTUS43 KFGF 301300 AAB
TAFTVF
TAF AMD
KTVF 301353Z 3014/3112 35007KT P6SM BKN005
     FM301600 VRB06KT P6SM SCT250
     FM310000 13010KT P6SM BKN250
     FM311000 14008KT P6SM BKN050
      AMD LTD TO CLD VIS AND WIND=

USA.gov is the U.S. government's official web portal to all federal, state and local government web resources and services.